Time;durP1;ratioP1;P1;durP2;ratioP2;P2;SDS_P1;SDS_P2;PMS_P1;PMS_P2;Temp;Humidity;BMP_temperature;BMP_pressure;BME280_temperature;BME280_humidity;BME280_pressure;Samples;Min_cycle;Max_cycle;Signal;HPM_P1;HPM_P2
2023/04/12 00:02:01;;;;;;;6.18;5.57;;;11.10;97.70;;;;;;6122854;23;20481;-83
2023/04/12 00:04:28;;;;;;;7.07;6.45;;;11.10;95.30;;;;;;6121251;23;20396;-82
2023/04/12 00:06:56;;;;;;;6.32;5.72;;;11.00;95.80;;;;;;6122468;23;20364;-83
2023/04/12 00:09:23;;;;;;;6.68;5.80;;;11.00;96.80;;;;;;6123831;23;20387;-84
2023/04/12 00:11:50;;;;;;;6.47;5.82;;;10.90;95.40;;;;;;6121844;23;20747;-84
2023/04/12 00:14:17;;;;;;;6.00;5.40;;;10.90;96.40;;;;;;6122075;23;20410;-83
2023/04/12 00:16:44;;;;;;;6.43;5.80;;;10.90;96.50;;;;;;6121432;23;20394;-84
2023/04/12 00:19:10;;;;;;;6.38;5.60;;;10.80;97.00;;;;;;6121736;23;20384;-84
2023/04/12 00:21:37;;;;;;;7.45;6.75;;;10.80;96.40;;;;;;6121332;23;20376;-82
2023/04/12 00:24:05;;;;;;;6.68;6.00;;;10.70;99.60;;;;;;6122242;23;20387;-83
2023/04/12 00:26:32;;;;;;;6.00;5.50;;;10.70;97.40;;;;;;6121393;23;20376;-82
2023/04/12 00:28:59;;;;;;;6.10;5.50;;;10.70;96.40;;;;;;6122147;23;20395;-83
2023/04/12 00:31:26;;;;;;;6.20;5.33;;;10.70;98.30;;;;;;6122520;23;20403;-83
2023/04/12 00:33:53;;;;;;;5.50;4.95;;;10.70;97.00;;;;;;6121174;23;20399;-83
2023/04/12 00:36:21;;;;;;;5.60;5.10;;;10.70;96.60;;;;;;6122510;23;20428;-83
2023/04/12 00:38:47;;;;;;;6.43;5.55;;;10.70;96.70;;;;;;6121208;23;20415;-83
2023/04/12 00:41:14;;;;;;;6.50;5.90;;;10.70;96.90;;;;;;6123936;23;20375;-83
2023/04/12 00:43:41;;;;;;;5.50;5.00;;;10.70;97.00;;;;;;6123138;23;20430;-83
2023/04/12 00:46:10;;;;;;;5.03;4.60;;;10.70;96.90;;;;;;6123777;23;20376;-83
2023/04/12 00:48:38;;;;;;;5.72;5.20;;;10.70;97.20;;;;;;6123054;23;20390;-82
2023/04/12 00:51:06;;;;;;;5.28;4.75;;;10.70;96.60;;;;;;6124320;23;20380;-83
2023/04/12 00:53:33;;;;;;;5.30;4.80;;;10.70;97.20;;;;;;6123728;23;20380;-83
2023/04/12 00:56:00;;;;;;;5.35;4.85;;;10.60;97.10;;;;;;6123241;23;20419;-83
2023/04/12 00:58:27;;;;;;;4.95;4.50;;;10.70;97.60;;;;;;6123449;23;20434;-83
2023/04/12 01:00:54;;;;;;;4.82;4.32;;;10.70;97.80;;;;;;6123716;23;20694;-82
2023/04/12 03:23:48;;;;;;;7.28;6.15;;;9.20;99.90;;;;;;6110579;23;20428;-82
2023/04/12 03:26:15;;;;;;;7.65;6.68;;;9.20;99.90;;;;;;6154535;23;20696;-82
2023/04/12 03:28:42;;;;;;;8.00;7.20;;;9.20;99.90;;;;;;6155012;23;20386;-82
2023/04/12 03:31:09;;;;;;;6.97;6.27;;;9.20;99.90;;;;;;6154285;23;20674;-82
2023/04/12 03:33:36;;;;;;;7.22;5.75;;;9.20;99.90;;;;;;6153973;23;20382;-82
2023/04/12 03:36:04;;;;;;;6.63;5.93;;;9.10;99.90;;;;;;6155180;23;20402;-82
2023/04/12 03:38:31;;;;;;;7.18;5.90;;;9.10;99.90;;;;;;6154128;23;20437;-82
2023/04/12 03:40:58;;;;;;;8.95;7.05;;;9.10;99.90;;;;;;6154319;23;20840;-82
2023/04/12 03:43:26;;;;;;;8.00;6.90;;;9.10;99.90;;;;;;6154439;23;20740;-82
2023/04/12 03:45:53;;;;;;;8.00;7.10;;;9.10;99.90;;;;;;6153627;23;20704;-82
2023/04/12 03:48:20;;;;;;;10.65;8.25;;;9.00;99.90;;;;;;6153654;23;20366;-82
2023/04/12 03:50:47;;;;;;;9.15;7.28;;;9.10;99.90;;;;;;6152055;23;20405;-82
2023/04/12 03:53:14;;;;;;;8.82;7.13;;;9.00;99.90;;;;;;6153971;23;20378;-82
2023/04/12 03:55:42;;;;;;;7.18;6.47;;;9.00;99.90;;;;;;6154604;23;20445;-82
2023/04/12 03:58:08;;;;;;;7.28;6.57;;;9.00;99.90;;;;;;6153703;23;20442;-82
2023/04/12 04:00:35;;;;;;;6.40;5.80;;;8.90;99.90;;;;;;6154732;23;20444;-82
2023/04/12 04:03:03;;;;;;;6.30;5.70;;;8.90;99.90;;;;;;6135165;23;20407;-82
2023/04/12 04:05:31;;;;;;;6.68;6.00;;;8.80;99.90;;;;;;6125039;23;20418;-82
2023/04/12 04:08:01;;;;;;;6.55;5.90;;;8.70;99.90;;;;;;6123782;23;20382;-82
2023/04/12 04:10:28;;;;;;;6.70;6.10;;;8.70;99.90;;;;;;6124663;23;20438;-82
2023/04/12 04:12:55;;;;;;;6.43;5.82;;;8.60;99.90;;;;;;6124474;23;20396;-82
2023/04/12 04:15:24;;;;;;;6.20;5.60;;;8.50;99.90;;;;;;6127910;23;20411;-82
2023/04/12 04:17:51;;;;;;;5.72;5.13;;;8.50;99.90;;;;;;6126071;23;20383;-81
2023/04/12 04:20:19;;;;;;;5.55;5.05;;;8.40;99.90;;;;;;6127557;23;20371;-82
2023/04/12 04:22:47;;;;;;;6.70;6.10;;;8.30;99.90;;;;;;6127857;23;20376;-82
2023/04/12 04:25:14;;;;;;;6.28;5.68;;;8.30;99.90;;;;;;6109745;23;20373;-82
2023/04/12 04:27:43;;;;;;;7.10;5.88;;;8.30;99.90;;;;;;6098101;23;20839;-82
2023/04/12 04:30:17;;;;;;;6.55;5.93;;;8.20;99.90;;;;;;6096828;23;20409;-82
2023/04/12 04:32:44;;;;;;;5.50;5.07;;;8.20;99.90;;;;;;6097684;23;20436;-82
2023/04/12 04:35:15;;;;;;;5.50;5.00;;;8.30;99.90;;;;;;6097729;23;20381;-82
2023/04/12 04:37:42;;;;;;;6.15;5.55;;;8.30;99.90;;;;;;6097569;23;20763;-82
2023/04/12 04:40:13;;;;;;;6.45;5.85;;;8.30;99.90;;;;;;6096460;23;20388;-82
2023/04/12 04:42:41;;;;;;;6.13;5.53;;;8.40;99.90;;;;;;6097227;23;20495;-82
2023/04/12 04:45:12;;;;;;;7.55;6.85;;;8.40;99.90;;;;;;6096571;23;20436;-82
2023/04/12 04:47:39;;;;;;;7.10;6.50;;;8.50;99.90;;;;;;6098651;23;20383;-82
2023/04/12 04:50:07;;;;;;;7.40;6.70;;;8.60;99.90;;;;;;6097061;23;20546;-82
2023/04/12 04:52:36;;;;;;;6.63;6.03;;;8.70;99.90;;;;;;6098297;23;20378;-82
2023/04/12 04:55:03;;;;;;;7.13;6.43;;;8.70;99.90;;;;;;6096245;23;20389;-82
2023/04/12 04:57:33;;;;;;;6.72;6.05;;;8.80;99.90;;;;;;6097750;23;20393;-82
2023/04/12 05:00:00;;;;;;;7.78;6.97;;;8.90;99.90;;;;;;6096001;23;20382;-81
2023/04/12 05:02:27;;;;;;;7.38;6.72;;;9.00;99.90;;;;;;6099569;23;20689;-82
2023/04/12 05:04:55;;;;;;;7.00;6.38;;;9.10;99.90;;;;;;6097601;23;20696;-81
2023/04/12 05:07:22;;;;;;;6.55;5.95;;;9.20;99.90;;;;;;6098258;23;20412;-82
2023/04/12 05:09:49;;;;;;;7.25;6.10;;;9.20;99.90;;;;;;6098117;23;20389;-82
2023/04/12 05:12:16;;;;;;;8.02;7.22;;;9.30;99.90;;;;;;6095866;23;20397;-82
2023/04/12 05:14:43;;;;;;;7.72;6.63;;;9.40;99.90;;;;;;6095717;23;20377;-82
2023/04/12 05:17:17;;;;;;;8.05;7.13;;;9.50;99.90;;;;;;6095370;23;20696;-82
2023/04/12 05:19:44;;;;;;;7.10;6.50;;;9.60;99.90;;;;;;6096013;23;20381;-82
2023/04/12 05:22:12;;;;;;;8.23;7.45;;;9.60;99.90;;;;;;6094863;23;20389;-81
2023/04/12 05:24:39;;;;;;;9.27;8.38;;;9.80;99.90;;;;;;6100325;23;20845;-82
2023/04/12 05:27:06;;;;;;;8.90;8.00;;;9.80;99.90;;;;;;6100497;23;20434;-82
2023/04/12 05:29:33;;;;;;;9.20;8.35;;;9.90;99.90;;;;;;6100769;23;20384;-82
2023/04/12 05:32:01;;;;;;;7.88;7.18;;;10.00;99.90;;;;;;6100446;23;20422;-82
2023/04/12 05:34:30;;;;;;;7.55;6.85;;;10.10;99.90;;;;;;6100537;23;20718;-82
2023/04/12 05:36:58;;;;;;;7.30;6.60;;;10.10;99.90;;;;;;6124471;23;20375;-82
2023/04/12 05:39:26;;;;;;;6.72;6.13;;;10.20;99.90;;;;;;6099673;23;20697;-82
2023/04/12 05:41:53;;;;;;;6.80;6.10;;;10.30;99.90;;;;;;6099047;23;20442;-82
2023/04/12 05:44:20;;;;;;;7.47;6.07;;;10.30;99.90;;;;;;6157147;23;20369;-81
2023/04/12 05:46:47;;;;;;;6.00;5.50;;;10.40;99.90;;;;;;6157878;23;20372;-82
2023/04/12 05:49:14;;;;;;;6.53;5.93;;;10.50;99.90;;;;;;6157193;23;20383;-83
2023/04/12 05:51:40;;;;;;;6.22;5.63;;;10.50;99.90;;;;;;6158764;23;20743;-82
2023/04/12 05:54:07;;;;;;;8.02;6.78;;;10.50;99.90;;;;;;6156892;23;20683;-82
2023/04/12 05:56:34;;;;;;;7.15;6.45;;;10.60;99.90;;;;;;6156809;23;20368;-82
2023/04/12 05:59:02;;;;;;;7.88;7.18;;;10.60;99.90;;;;;;6155763;23;20368;-82
2023/04/12 06:01:30;;;;;;;8.37;7.60;;;10.70;99.90;;;;;;6156213;23;20703;-82
2023/04/12 06:03:58;;;;;;;8.10;7.40;;;10.70;99.90;;;;;;6156721;23;20383;-82
2023/04/12 06:06:28;;;;;;;8.77;7.97;;;10.70;99.90;;;;;;6182544;23;20419;-83
2023/04/12 06:08:59;;;;;;;7.95;7.25;;;10.70;99.90;;;;;;6153350;23;20373;-82
2023/04/12 06:11:27;;;;;;;7.53;6.93;;;10.70;99.90;;;;;;6182292;23;20371;-82
2023/04/12 06:13:54;;;;;;;7.22;6.55;;;10.80;99.90;;;;;;6156037;23;20364;-82
2023/04/12 06:16:21;;;;;;;7.93;7.13;;;10.80;99.90;;;;;;6156176;23;20388;-82
2023/04/12 06:18:48;;;;;;;6.85;6.25;;;10.80;99.90;;;;;;6157288;23;20396;-82
2023/04/12 06:21:14;;;;;;;6.55;5.95;;;10.80;99.90;;;;;;6156476;23;20376;-82
2023/04/12 06:23:41;;;;;;;6.47;5.88;;;10.90;99.90;;;;;;6157598;23;20750;-82
2023/04/12 06:26:08;;;;;;;7.10;6.50;;;10.90;99.90;;;;;;6155651;23;20692;-82
2023/04/12 06:28:36;;;;;;;8.75;7.85;;;10.90;99.90;;;;;;6156807;23;20368;-82
2023/04/12 06:31:03;;;;;;;8.15;6.90;;;11.00;99.90;;;;;;6156814;23;20384;-82
2023/04/12 06:33:30;;;;;;;7.60;6.90;;;11.00;99.90;;;;;;6132105;23;20360;-82
2023/04/12 06:35:57;;;;;;;7.33;6.63;;;11.00;99.90;;;;;;6155626;23;20919;-82
2023/04/12 06:38:24;;;;;;;7.78;6.93;;;11.00;99.90;;;;;;6182265;23;20447;-83
2023/04/12 06:40:51;;;;;;;7.15;6.45;;;11.10;99.90;;;;;;6156797;23;20409;-82
2023/04/12 06:43:19;;;;;;;8.73;7.90;;;11.10;99.90;;;;;;6156242;23;20769;-82
2023/04/12 06:45:46;;;;;;;9.05;8.15;;;11.10;99.90;;;;;;6156379;23;20443;-82
2023/04/12 06:48:13;;;;;;;7.95;7.22;;;11.10;99.90;;;;;;6155646;23;20368;-82
2023/04/12 06:50:39;;;;;;;7.80;7.03;;;11.20;99.90;;;;;;6156130;23;20451;-82
2023/04/12 06:53:06;;;;;;;8.17;7.37;;;11.20;99.90;;;;;;6157420;23;20407;-82
2023/04/12 06:55:33;;;;;;;8.03;7.30;;;11.20;99.90;;;;;;6155542;23;20719;-83
2023/04/12 06:58:00;;;;;;;7.47;6.65;;;11.20;99.90;;;;;;6156570;23;20404;-83
2023/04/12 07:00:27;;;;;;;7.40;6.70;;;11.20;99.90;;;;;;6155881;23;20379;-82
2023/04/12 07:02:54;;;;;;;7.18;6.47;;;11.20;99.90;;;;;;6156754;23;20376;-83
2023/04/12 07:05:21;;;;;;;6.70;6.07;;;11.30;99.90;;;;;;6155345;23;20372;-82
2023/04/12 07:07:48;;;;;;;7.13;6.50;;;11.30;99.90;;;;;;6151121;23;20372;-82
2023/04/12 07:10:15;;;;;;;7.63;6.07;;;11.30;99.90;;;;;;6155036;23;20771;-82
2023/04/12 07:12:41;;;;;;;6.20;5.60;;;11.30;99.90;;;;;;6156089;23;20750;-82
2023/04/12 07:15:09;;;;;;;7.13;6.43;;;11.30;99.90;;;;;;6156153;23;20854;-82
2023/04/12 07:17:36;;;;;;;7.10;6.50;;;11.40;99.90;;;;;;6156651;23;20368;-82
2023/04/12 07:20:03;;;;;;;6.47;5.88;;;11.40;99.90;;;;;;6157152;23;20395;-82
2023/04/12 07:22:30;;;;;;;6.47;5.88;;;11.40;99.90;;;;;;6156037;23;20396;-82
2023/04/12 07:24:57;;;;;;;5.75;5.22;;;11.40;99.90;;;;;;6155794;23;20423;-82
2023/04/12 07:27:24;;;;;;;6.00;5.50;;;11.40;99.90;;;;;;6181344;23;20376;-82
2023/04/12 07:29:54;;;;;;;6.43;5.83;;;11.40;99.90;;;;;;6156549;23;20849;-82
2023/04/12 07:32:21;;;;;;;6.82;6.10;;;11.50;99.90;;;;;;6178242;23;20403;-82
2023/04/12 07:34:48;;;;;;;7.40;6.80;;;11.50;99.90;;;;;;6156682;23;20376;-82
2023/04/12 07:37:16;;;;;;;7.18;6.43;;;11.50;99.90;;;;;;6181214;23;20384;-82
2023/04/12 07:39:43;;;;;;;6.65;6.05;;;11.50;99.90;;;;;;6156317;23;20439;-82
2023/04/12 07:42:10;;;;;;;6.00;5.40;;;11.50;99.90;;;;;;6158979;23;20376;-82
2023/04/12 07:48:25;;;;;;;6.60;6.00;;;11.60;99.90;;;;;;6184355;23;20363;-82
2023/04/12 07:50:52;;;;;;;7.32;6.63;;;11.60;99.90;;;;;;6161137;23;20376;-82
2023/04/12 07:53:21;;;;;;;6.70;6.10;;;11.70;99.90;;;;;;6159761;23;20373;-82
2023/04/12 07:55:49;;;;;;;7.47;6.70;;;11.70;99.90;;;;;;6161384;23;20372;-82
2023/04/12 07:58:17;;;;;;;8.35;7.18;;;11.70;99.90;;;;;;6187324;23;20406;-82
2023/04/12 08:00:44;;;;;;;8.10;7.30;;;11.70;99.90;;;;;;6161600;23;20767;-81
2023/04/12 08:03:12;;;;;;;8.10;7.30;;;11.70;99.90;;;;;;6160044;23;20407;-82
2023/04/12 08:05:40;;;;;;;9.52;8.63;;;11.70;99.90;;;;;;6161625;23;20430;-82
2023/04/12 08:08:10;;;;;;;13.98;8.90;;;11.70;99.90;;;;;;6160204;23;20452;-82
2023/04/12 08:10:38;;;;;;;9.60;8.60;;;11.70;99.90;;;;;;6160761;23;20368;-83
2023/04/12 08:13:05;;;;;;;10.80;7.85;;;11.70;99.90;;;;;;6161022;23;20702;-82
2023/04/12 08:15:33;;;;;;;9.43;8.20;;;11.70;99.90;;;;;;6161667;23;20369;-81
2023/04/12 08:18:01;;;;;;;8.68;7.15;;;11.70;99.90;;;;;;6162152;23;20743;-82
2023/04/12 08:20:28;;;;;;;6.85;6.25;;;11.80;99.90;;;;;;6161615;23;20367;-82
2023/04/12 08:22:55;;;;;;;7.43;5.70;;;11.80;99.90;;;;;;6162687;23;20730;-80
2023/04/12 08:25:23;;;;;;;7.15;6.45;;;11.80;99.90;;;;;;6171349;23;20368;-80
2023/04/12 08:27:50;;;;;;;6.70;6.10;;;11.90;99.90;;;;;;6171224;23;20368;-81
2023/04/12 08:30:18;;;;;;;6.50;5.90;;;11.90;99.90;;;;;;6169819;23;20387;-82
2023/04/12 08:32:44;;;;;;;7.30;6.32;;;11.90;99.90;;;;;;6174725;23;20372;-81
2023/04/12 08:35:13;;;;;;;7.28;6.57;;;12.00;99.90;;;;;;6173953;23;20439;-79
2023/04/12 08:37:40;;;;;;;6.80;6.07;;;12.00;99.90;;;;;;6173273;23;20364;-81
2023/04/12 08:40:08;;;;;;;6.88;6.28;;;12.00;99.90;;;;;;6172970;23;20848;-80
2023/04/12 08:42:36;;;;;;;6.78;6.18;;;12.00;99.90;;;;;;6174002;23;20364;-80
2023/04/12 08:45:05;;;;;;;6.72;6.13;;;12.10;99.90;;;;;;6172977;23;20395;-80
2023/04/12 08:47:38;;;;;;;6.28;5.68;;;12.10;99.90;;;;;;6172207;23;20367;-80
2023/04/12 08:50:08;;;;;;;6.40;5.80;;;12.20;99.90;;;;;;6168377;23;20783;-80
2023/04/12 08:52:36;;;;;;;7.05;6.40;;;12.20;99.90;;;;;;6164884;23;20424;-82
2023/04/12 08:55:07;;;;;;;8.93;7.47;;;12.20;99.90;;;;;;6163927;23;20698;-82
2023/04/12 08:57:35;;;;;;;6.82;6.13;;;12.20;99.90;;;;;;6189135;23;20377;-81
2023/04/12 09:00:06;;;;;;;6.88;6.00;;;12.30;99.90;;;;;;6163724;23;20376;-80
2023/04/12 09:02:35;;;;;;;7.07;6.45;;;12.30;99.90;;;;;;6164332;23;20423;-79
2023/04/12 09:05:03;;;;;;;8.32;7.32;;;12.30;99.90;;;;;;6160915;23;20702;-79
2023/04/12 09:07:30;;;;;;;6.95;6.28;;;12.30;99.90;;;;;;6184139;23;20376;-81
2023/04/12 09:09:58;;;;;;;10.50;7.45;;;12.30;99.90;;;;;;6158463;23;20380;-81
2023/04/12 09:12:26;;;;;;;7.15;6.45;;;12.30;99.90;;;;;;6157083;23;20368;-83
2023/04/12 09:15:14;;;;;;;7.28;6.13;;;12.30;99.90;;;;;;6159813;23;20368;-79
2023/04/12 09:17:41;;;;;;;7.05;6.18;;;12.30;99.90;;;;;;6159686;23;20441;-82
2023/04/12 09:20:17;;;;;;;13.00;6.13;;;12.20;99.90;;;;;;6159614;23;20390;-81
2023/04/12 09:22:45;;;;;;;18.25;6.40;;;12.20;99.90;;;;;;6158008;23;20365;-81
2023/04/12 09:25:14;;;;;;;8.82;6.03;;;12.20;99.90;;;;;;6153194;23;20378;-81
2023/04/12 09:27:51;;;;;;;6.65;5.20;;;12.20;99.90;;;;;;6152363;23;20377;-81
2023/04/12 09:30:19;;;;;;;5.97;5.37;;;12.20;99.90;;;;;;6152625;23;20453;-83
2023/04/12 09:32:49;;;;;;;5.28;4.78;;;12.30;99.90;;;;;;6152625;23;20362;-81
2023/04/12 09:35:17;;;;;;;5.32;4.78;;;12.30;99.90;;;;;;6151973;23;20753;-81
2023/04/12 09:37:44;;;;;;;5.68;5.07;;;12.30;99.90;;;;;;6152139;23;20367;-80
2023/04/12 09:40:12;;;;;;;5.00;4.53;;;12.40;99.90;;;;;;6152504;23;20378;-81
2023/04/12 09:42:52;;;;;;;9.57;5.15;;;12.40;99.90;;;;;;6152647;23;20381;-81
2023/04/12 09:45:22;;;;;;;6.80;4.43;;;12.40;99.90;;;;;;6152651;23;20821;-82
2023/04/12 09:47:50;;;;;;;5.15;4.40;;;12.40;99.90;;;;;;6152295;23;20373;-81
2023/04/12 09:50:28;;;;;;;5.07;4.15;;;12.50;99.90;;;;;;6152769;23;20797;-82
2023/04/12 09:52:56;;;;;;;4.90;4.35;;;12.50;99.90;;;;;;6152124;23;20405;-81
2023/04/12 09:55:26;;;;;;;5.18;4.65;;;12.50;99.90;;;;;;6152746;23;20752;-81
2023/04/12 09:57:54;;;;;;;4.90;4.20;;;12.50;99.90;;;;;;6150853;23;20373;-81
2023/04/12 10:00:22;;;;;;;4.82;4.28;;;12.60;99.90;;;;;;6150577;23;20720;-82
2023/04/12 10:02:53;;;;;;;4.80;4.40;;;12.60;99.90;;;;;;6151612;23;20856;-82
2023/04/12 10:05:24;;;;;;;5.85;5.28;;;12.60;99.90;;;;;;6152630;23;20752;-82
2023/04/12 10:07:53;;;;;;;4.10;3.70;;;12.60;99.90;;;;;;6152836;23;20404;-82
2023/04/12 10:10:22;;;;;;;4.28;3.97;;;12.60;99.90;;;;;;6152437;23;20406;-82
2023/04/12 10:12:49;;;;;;;4.30;4.00;;;12.70;99.90;;;;;;6151139;23;20795;-83
2023/04/12 10:15:19;;;;;;;5.35;4.65;;;12.60;99.90;;;;;;6152417;23;20370;-82
2023/04/12 10:17:53;;;;;;;5.20;4.40;;;12.70;99.90;;;;;;6151163;23;20398;-82
2023/04/12 10:20:21;;;;;;;5.00;4.53;;;12.70;99.90;;;;;;6152302;23;20454;-82
2023/04/12 10:22:53;;;;;;;5.28;4.78;;;12.70;99.90;;;;;;6151334;23;20388;-84
2023/04/12 10:25:22;;;;;;;6.30;5.70;;;12.70;99.90;;;;;;6180750;23;20376;-83
2023/04/12 10:27:49;;;;;;;6.82;5.78;;;12.80;99.90;;;;;;6156769;23;20376;-83
2023/04/12 10:30:27;;;;;;;7.00;5.60;;;12.80;99.90;;;;;;6157720;23;20395;-82
2023/04/12 10:33:07;;;;;;;5.88;5.10;;;12.80;99.90;;;;;;6156087;23;20475;-83
2023/04/12 10:35:56;;;;;;;5.60;5.10;;;12.80;99.90;;;;;;6156875;23;20376;-83
2023/04/12 10:38:30;;;;;;;6.43;5.68;;;12.80;99.90;;;;;;6157490;23;20442;-82
2023/04/12 10:41:09;;;;;;;6.43;5.70;;;12.80;99.90;;;;;;6182390;23;20365;-83
2023/04/12 10:43:36;;;;;;;5.97;5.15;;;12.80;99.90;;;;;;6156632;23;20372;-82
2023/04/12 10:46:05;;;;;;;5.22;4.72;;;12.80;99.90;;;;;;6157213;23;20360;-83
2023/04/12 10:48:34;;;;;;;5.15;4.63;;;12.90;99.90;;;;;;6157169;23;20368;-83
2023/04/12 10:51:26;;;;;;;6.55;5.85;;;12.90;99.90;;;;;;6156693;23;20376;-83
2023/04/12 10:54:16;;;;;;;6.07;5.47;;;12.90;99.90;;;;;;6156786;23;20376;-82
2023/04/12 10:56:47;;;;;;;7.93;7.13;;;12.90;99.90;;;;;;6182669;23;20390;-82
2023/04/12 10:59:15;;;;;;;6.07;5.35;;;12.90;99.90;;;;;;6157640;23;20376;-82
2023/04/12 11:02:08;;;;;;;5.03;4.53;;;12.90;99.90;;;;;;6156009;23;20750;-82
2023/04/12 11:04:35;;;;;;;7.07;5.75;;;12.90;99.90;;;;;;6156423;23;20384;-80
2023/04/12 11:07:10;;;;;;;6.43;5.57;;;13.00;99.90;;;;;;6157079;23;20364;-81
2023/04/12 11:09:40;;;;;;;6.95;5.50;;;13.00;99.90;;;;;;6156000;23;20463;-83
2023/04/12 11:12:12;;;;;;;6.55;5.95;;;13.10;99.90;;;;;;6155654;23;20377;-83
2023/04/12 11:14:47;;;;;;;7.18;6.55;;;13.10;99.90;;;;;;6156965;23;20815;-81
2023/04/12 11:17:14;;;;;;;5.15;4.72;;;13.10;99.90;;;;;;6181548;23;20365;-81
2023/04/12 11:19:44;;;;;;;5.90;5.22;;;13.10;99.90;;;;;;6156114;23;20372;-82
2023/04/12 11:22:13;;;;;;;5.80;5.30;;;13.20;99.90;;;;;;6155467;23;20694;-81
2023/04/12 11:24:49;;;;;;;5.60;4.80;;;13.10;99.90;;;;;;6155445;23;20369;-82
2023/04/12 11:27:17;;;;;;;5.78;5.18;;;13.10;99.90;;;;;;6154582;23;20422;-80
2023/04/12 11:29:48;;;;;;;6.20;5.60;;;13.10;99.90;;;;;;6156283;23;20376;-81
2023/04/12 11:32:15;;;;;;;6.70;6.07;;;13.10;99.90;;;;;;6155521;23;20723;-81
2023/04/12 11:34:44;;;;;;;6.20;5.65;;;13.20;99.90;;;;;;6156377;23;20379;-81
2023/04/12 11:37:11;;;;;;;7.40;6.70;;;13.20;99.90;;;;;;6154730;23;20407;-82
2023/04/12 11:39:40;;;;;;;6.85;6.25;;;13.20;99.90;;;;;;6155459;23;20791;-81
2023/04/12 11:42:16;;;;;;;6.97;6.28;;;13.20;99.90;;;;;;6155332;23;20372;-81
2023/04/12 11:44:47;;;;;;;7.25;6.57;;;13.20;99.90;;;;;;6156336;23;20368;-82
2023/04/12 11:47:25;;;;;;;7.32;6.57;;;13.20;99.90;;;;;;6180888;23;20702;-81
2023/04/12 11:49:57;;;;;;;7.00;6.35;;;13.20;99.90;;;;;;6155595;23;20377;-82
2023/04/12 11:52:29;;;;;;;7.53;6.77;;;13.20;99.90;;;;;;6154421;23;20372;-81
2023/04/12 11:54:57;;;;;;;8.57;7.77;;;13.20;99.90;;;;;;6155107;23;20380;-81
2023/04/12 11:57:27;;;;;;;7.88;7.13;;;13.20;99.90;;;;;;6155649;23;20415;-81
2023/04/12 11:59:57;;;;;;;9.27;8.25;;;13.20;99.90;;;;;;6155665;23;20380;-82
2023/04/12 12:02:25;;;;;;;8.70;7.90;;;13.20;99.90;;;;;;6154622;23;20372;-82
2023/04/12 12:04:58;;;;;;;8.77;7.70;;;13.20;99.90;;;;;;6156218;23;20431;-82
2023/04/12 12:07:25;;;;;;;8.35;7.43;;;13.20;99.90;;;;;;6154469;23;20394;-80
2023/04/12 12:09:53;;;;;;;8.75;7.95;;;13.10;99.90;;;;;;6156087;23;20426;-80
2023/04/12 12:12:23;;;;;;;8.37;7.50;;;13.20;99.90;;;;;;6155128;23;20385;-81
2023/04/12 12:14:50;;;;;;;10.20;8.38;;;13.20;99.90;;;;;;6155928;23;20713;-82
2023/04/12 12:17:16;;;;;;;9.70;8.80;;;13.20;99.90;;;;;;6153995;23;20439;-81
2023/04/12 12:19:45;;;;;;;8.97;8.17;;;13.30;99.90;;;;;;6184459;23;20380;-84
2023/04/12 12:22:21;;;;;;;9.68;8.68;;;13.20;99.90;;;;;;6156527;23;20738;-85
2023/04/12 12:24:55;;;;;;;8.40;7.60;;;13.20;99.90;;;;;;6156063;23;20380;-84
2023/04/12 12:27:43;;;;;;;8.73;7.93;;;13.20;99.90;;;;;;6155400;23;20391;-84
2023/04/12 12:30:11;;;;;;;8.48;7.45;;;13.20;99.90;;;;;;6155083;23;20376;-84
2023/04/12 12:32:38;;;;;;;8.60;7.78;;;13.20;99.90;;;;;;6156592;23;20770;-81
2023/04/12 12:35:10;;;;;;;7.93;6.93;;;13.20;99.90;;;;;;6155839;23;20849;-84
2023/04/12 12:37:51;;;;;;;7.43;6.72;;;13.20;99.90;;;;;;6183957;23;20751;-83
2023/04/12 12:40:27;;;;;;;8.85;7.95;;;13.30;99.90;;;;;;6182366;23;20383;-87
2023/04/12 12:42:55;;;;;;;8.73;7.93;;;13.30;99.90;;;;;;6157481;23;20377;-82
2023/04/12 12:45:26;;;;;;;9.07;8.18;;;13.30;99.90;;;;;;6182109;23;20440;-83
2023/04/12 12:47:57;;;;;;;9.43;8.48;;;13.30;99.90;;;;;;6156678;23;20703;-83
2023/04/12 12:50:29;;;;;;;8.75;7.95;;;13.40;99.90;;;;;;6181637;23;20448;-82
2023/04/12 12:52:58;;;;;;;8.57;7.78;;;13.30;99.90;;;;;;6157539;23;20369;-83
2023/04/12 12:55:27;;;;;;;8.48;7.60;;;13.40;99.90;;;;;;6156696;23;20373;-83
2023/04/12 12:57:56;;;;;;;8.00;7.22;;;13.40;99.90;;;;;;6157427;23;20364;-83
2023/04/12 13:00:27;;;;;;;8.18;7.43;;;13.40;99.90;;;;;;6157079;23;21329;-82
2023/04/12 13:02:54;;;;;;;8.60;7.80;;;13.40;99.90;;;;;;6156086;23;20372;-84
2023/04/12 13:05:22;;;;;;;8.65;7.85;;;13.40;99.90;;;;;;6156551;23;20373;-82
2023/04/12 13:07:49;;;;;;;9.52;8.63;;;13.50;99.90;;;;;;6157306;23;20383;-83
2023/04/12 13:10:16;;;;;;;8.68;7.85;;;13.50;99.90;;;;;;6182137;23;20373;-83
2023/04/12 13:12:43;;;;;;;10.05;9.13;;;13.60;99.90;;;;;;6182412;23;20438;-83
2023/04/12 13:15:13;;;;;;;14.30;12.35;;;13.60;99.90;;;;;;6156065;23;20380;-83
2023/04/12 13:17:51;;;;;;;26.88;20.10;;;13.70;99.90;;;;;;6159308;23;20377;-83
2023/04/12 13:20:18;;;;;;;16.77;13.13;;;13.70;99.90;;;;;;6156552;23;20403;-82
2023/04/12 13:22:45;;;;;;;20.10;16.13;;;13.90;99.90;;;;;;6157189;23;20376;-83
2023/04/12 13:25:12;;;;;;;15.95;13.55;;;14.00;99.90;;;;;;6155308;23;20387;-83
2023/04/12 13:27:39;;;;;;;11.73;10.52;;;14.00;99.90;;;;;;6157228;23;20746;-83
2023/04/12 13:30:07;;;;;;;9.93;8.93;;;14.10;99.90;;;;;;6156469;23;20384;-83
2023/04/12 13:32:34;;;;;;;10.25;9.27;;;14.10;99.90;;;;;;6156188;23;20396;-83
2023/04/12 13:35:02;;;;;;;10.15;9.15;;;14.10;99.90;;;;;;6182604;23;20438;-83
2023/04/12 13:37:30;;;;;;;9.88;8.98;;;14.10;99.90;;;;;;6155559;23;20376;-83
2023/04/12 13:39:57;;;;;;;10.63;8.90;;;14.10;99.90;;;;;;6157448;23;20388;-83
2023/04/12 13:42:24;;;;;;;11.40;10.30;;;14.10;99.90;;;;;;6155254;23;20380;-83
2023/04/12 13:44:51;;;;;;;10.45;9.45;;;14.10;99.90;;;;;;6182759;23;20883;-83
2023/04/12 13:47:18;;;;;;;13.23;11.95;;;14.20;99.90;;;;;;6155513;23;20379;-83
2023/04/12 13:49:45;;;;;;;11.68;10.48;;;14.20;99.90;;;;;;6156875;23;20373;-83
2023/04/12 13:52:12;;;;;;;11.90;10.63;;;14.20;99.90;;;;;;6155712;23;20703;-83
2023/04/12 13:54:40;;;;;;;13.45;12.15;;;14.20;99.90;;;;;;6156271;23;20376;-83
2023/04/12 13:57:06;;;;;;;10.77;9.68;;;14.20;99.90;;;;;;6157338;23;20368;-83
2023/04/12 13:59:34;;;;;;;11.23;10.13;;;14.20;99.90;;;;;;6155909;23;20371;-83
2023/04/12 14:02:01;;;;;;;13.07;11.77;;;14.20;99.90;;;;;;6157061;23;20759;-83
2023/04/12 14:04:30;;;;;;;10.83;9.77;;;14.10;99.90;;;;;;6155837;23;20396;-83
2023/04/12 14:06:58;;;;;;;10.35;9.45;;;14.10;99.90;;;;;;6156811;23;20455;-83
2023/04/12 14:09:30;;;;;;;11.98;10.80;;;14.10;99.90;;;;;;6155516;23;20372;-83
2023/04/12 14:12:00;;;;;;;11.00;9.90;;;14.10;99.90;;;;;;6156912;23;20380;-83
2023/04/12 14:14:27;;;;;;;11.23;10.02;;;14.10;99.90;;;;;;6155920;23;20829;-82
2023/04/12 14:16:57;;;;;;;10.25;9.18;;;14.10;99.90;;;;;;6156889;23;20706;-83
2023/04/12 14:19:25;;;;;;;10.13;9.13;;;14.10;99.90;;;;;;6155563;23;20387;-83
2023/04/12 14:21:52;;;;;;;10.18;9.18;;;14.10;99.90;;;;;;6156656;23;20380;-83
2023/04/12 14:24:20;;;;;;;11.00;9.65;;;14.10;99.90;;;;;;6155591;23;20761;-83
2023/04/12 14:26:48;;;;;;;9.68;8.70;;;14.10;99.90;;;;;;6156053;23;20375;-84
2023/04/12 14:29:16;;;;;;;9.23;8.32;;;14.10;99.90;;;;;;6155708;23;20395;-83
2023/04/12 14:31:43;;;;;;;9.53;8.60;;;14.10;99.90;;;;;;6156323;23;20367;-82
2023/04/12 14:34:10;;;;;;;8.90;8.00;;;14.10;99.80;;;;;;6156368;23;20431;-84
2023/04/12 14:36:37;;;;;;;8.77;7.88;;;14.10;99.80;;;;;;6155669;23;20396;-82
2023/04/12 14:39:04;;;;;;;9.75;8.43;;;14.10;99.30;;;;;;6156466;23;20372;-83
2023/04/12 14:41:36;;;;;;;8.60;7.70;;;14.20;99.10;;;;;;6181492;23;20376;-83
2023/04/12 14:44:04;;;;;;;10.07;8.60;;;14.20;98.70;;;;;;6156285;23;20403;-83
2023/04/12 14:46:31;;;;;;;9.27;8.38;;;14.30;98.40;;;;;;6155420;23;21098;-83
2023/04/12 14:48:59;;;;;;;9.77;8.77;;;14.30;97.90;;;;;;6156159;23;20565;-83
2023/04/12 14:51:28;;;;;;;8.70;7.80;;;14.30;97.50;;;;;;6155684;23;20763;-83
2023/04/12 14:53:55;;;;;;;9.88;8.88;;;14.30;97.80;;;;;;6156172;23;20397;-83
2023/04/12 14:56:25;;;;;;;9.65;8.65;;;14.40;98.20;;;;;;6155764;23;20369;-83
2023/04/12 14:58:56;;;;;;;10.05;8.75;;;14.40;97.80;;;;;;6157001;23;20391;-83
2023/04/12 15:01:23;;;;;;;9.70;8.55;;;14.50;98.10;;;;;;6155140;23;20371;-83
2023/04/12 15:03:51;;;;;;;9.23;8.32;;;14.50;98.20;;;;;;6156210;23;20691;-83
2023/04/12 15:06:21;;;;;;;10.20;9.20;;;14.50;97.60;;;;;;6155532;23;20438;-84
2023/04/12 15:08:55;;;;;;;10.07;8.98;;;14.40;97.20;;;;;;6156010;23;20364;-83
2023/04/12 15:11:25;;;;;;;10.48;9.38;;;14.40;97.10;;;;;;6155318;23;20698;-83
2023/04/12 15:13:53;;;;;;;11.40;10.20;;;14.40;97.00;;;;;;6156737;23;20743;-83
2023/04/12 15:16:21;;;;;;;11.02;9.82;;;14.40;96.90;;;;;;6155432;23;20706;-83
2023/04/12 15:18:49;;;;;;;11.82;10.55;;;14.40;97.20;;;;;;6156265;23;20367;-83